Airfield :







YOU CAN JOIN US ON...

 
LOGIN :

Register | Disclaimer

   EN    FR    IT 

 









Legend :    VFR   Marginal VFR   IFR   Intensive IFR   Very Intensive IFR
Visi :
Ceiling :
>= 8 km
>= 3000ft
5 to 8 km
1000 to 3000 ft
1500m to 5 km
500 to 1000 ft
800 to 1500m
200 to 500 ft
< 800m
< 200 ft
Symbols :   Thunderstorms  Fog  Heavy snow  Heavy precipitations  Wind > 20 kt






- Airport Elevation : 38 ft
- IATA code : TAB


TTCP - Crown Point Int.

CURRENT METAR :
  • 301900Z 14011KT 9999 VCSH SCT018 31/25 Q1011 NOSIG RMK VCSH N NE NW S

EXPIRED METARs :
  • 301800Z 13010KT 9999 VCSH SCT018 30/25 Q1011 NOSIG RMK VCSH W NW
  • 301700Z 11011KT 9999 FEW018 30/25 Q1012 NOSIG

TAF TAF TTCP
Valid from the 30 at 18:00 until the 01 at 18:00 UTC


301600Z 3018/0118 11010KT 9999 FEW020
BECMG 3023/0101 00000KT FEW016
TTZP FIR / North America



MET'MAP, your aeronautical weather chart ! - Copyright ORBIFLY December 2007 - Disclaimer

ORBIFLY MET'MAP TEAM :

Programming & Development : Alexandra Zaïnal
Concept & original design : Baudouin d'Aumeries
Assistance for programming : Marc-Olivier Méhu
Technical & hardware support : Manuel Goepfert

Contact : metmap@orbifly.com




SOURCES & CREDITS :

   NOAA